sensor_id;sensor_type;location;lat;lon;timestamp;P1;durP1;ratioP1;P2;durP2;ratioP2
55270;SDS011;41132;47.162;9.470;2022-09-14T00:00:54;2.22;;;1.10;;
55270;SDS011;41132;47.162;9.470;2022-09-14T00:03:19;2.40;;;1.13;;
55270;SDS011;41132;47.162;9.470;2022-09-14T00:05:45;1.63;;;1.10;;
55270;SDS011;41132;47.162;9.470;2022-09-14T00:08:10;2.78;;;1.10;;
55270;SDS011;41132;47.162;9.470;2022-09-14T00:10:37;3.45;;;1.08;;
55270;SDS011;41132;47.162;9.470;2022-09-14T00:13:07;2.03;;;0.88;;
55270;SDS011;41132;47.162;9.470;2022-09-14T00:15:34;2.90;;;1.10;;
55270;SDS011;41132;47.162;9.470;2022-09-14T00:18:01;6.05;;;1.40;;
55270;SDS011;41132;47.162;9.470;2022-09-14T00:20:26;2.45;;;1.00;;
55270;SDS011;41132;47.162;9.470;2022-09-14T00:22:52;3.03;;;1.00;;
55270;SDS011;41132;47.162;9.470;2022-09-14T00:25:17;2.90;;;1.20;;
55270;SDS011;41132;47.162;9.470;2022-09-14T00:27:42;2.83;;;1.20;;
55270;SDS011;41132;47.162;9.470;2022-09-14T00:30:08;5.95;;;1.48;;
55270;SDS011;41132;47.162;9.470;2022-09-14T00:32:34;4.13;;;1.27;;
55270;SDS011;41132;47.162;9.470;2022-09-14T00:34:59;2.40;;;1.17;;
55270;SDS011;41132;47.162;9.470;2022-09-14T00:37:24;4.47;;;1.30;;
55270;SDS011;41132;47.162;9.470;2022-09-14T00:39:50;3.45;;;1.25;;
55270;SDS011;41132;47.162;9.470;2022-09-14T00:42:15;6.13;;;1.20;;
55270;SDS011;41132;47.162;9.470;2022-09-14T00:47:11;2.03;;;1.08;;
55270;SDS011;41132;47.162;9.470;2022-09-14T00:49:39;3.83;;;1.02;;
55270;SDS011;41132;47.162;9.470;2022-09-14T00:52:07;4.10;;;1.27;;
55270;SDS011;41132;47.162;9.470;2022-09-14T00:54:50;4.63;;;1.10;;
55270;SDS011;41132;47.162;9.470;2022-09-14T00:57:18;3.42;;;1.15;;
55270;SDS011;41132;47.162;9.470;2022-09-14T00:59:46;3.38;;;1.35;;
55270;SDS011;41132;47.162;9.470;2022-09-14T01:02:15;5.55;;;1.20;;
55270;SDS011;41132;47.162;9.470;2022-09-14T01:04:42;2.83;;;1.10;;
55270;SDS011;41132;47.162;9.470;2022-09-14T01:18:27;4.88;;;1.20;;
55270;SDS011;41132;47.162;9.470;2022-09-14T01:23:27;3.45;;;1.50;;
55270;SDS011;41132;47.162;9.470;2022-09-14T01:28:30;3.53;;;1.52;;
55270;SDS011;41132;47.162;9.470;2022-09-14T01:31:06;3.42;;;1.77;;
55270;SDS011;41132;47.162;9.470;2022-09-14T01:33:41;2.58;;;1.15;;
55270;SDS011;41132;47.162;9.470;2022-09-14T01:36:15;4.88;;;1.50;;
55270;SDS011;41132;47.162;9.470;2022-09-14T01:38:42;3.17;;;1.00;;
55270;SDS011;41132;47.162;9.470;2022-09-14T01:41:14;3.38;;;1.27;;
55270;SDS011;41132;47.162;9.470;2022-09-14T01:43:48;2.83;;;1.20;;
55270;SDS011;41132;47.162;9.470;2022-09-14T01:46:24;3.50;;;1.38;;
55270;SDS011;41132;47.162;9.470;2022-09-14T01:49:07;6.35;;;1.17;;
55270;SDS011;41132;47.162;9.470;2022-09-14T01:51:39;2.55;;;1.10;;
55270;SDS011;41132;47.162;9.470;2022-09-14T01:54:06;3.47;;;1.10;;
55270;SDS011;41132;47.162;9.470;2022-09-14T01:56:37;3.05;;;1.25;;
55270;SDS011;41132;47.162;9.470;2022-09-14T01:59:11;4.68;;;1.25;;
55270;SDS011;41132;47.162;9.470;2022-09-14T02:01:52;5.22;;;1.10;;
55270;SDS011;41132;47.162;9.470;2022-09-14T02:04:21;3.47;;;1.17;;
55270;SDS011;41132;47.162;9.470;2022-09-14T02:06:55;3.08;;;1.15;;
55270;SDS011;41132;47.162;9.470;2022-09-14T02:09:21;3.35;;;1.25;;
55270;SDS011;41132;47.162;9.470;2022-09-14T02:11:51;2.10;;;1.02;;
55270;SDS011;41132;47.162;9.470;2022-09-14T02:14:18;3.58;;;1.10;;
55270;SDS011;41132;47.162;9.470;2022-09-14T02:16:44;3.35;;;1.15;;
55270;SDS011;41132;47.162;9.470;2022-09-14T02:19:10;2.67;;;1.00;;
55270;SDS011;41132;47.162;9.470;2022-09-14T02:21:37;3.28;;;1.40;;
55270;SDS011;41132;47.162;9.470;2022-09-14T02:24:02;4.88;;;1.40;;
55270;SDS011;41132;47.162;9.470;2022-09-14T02:26:28;4.20;;;1.45;;
55270;SDS011;41132;47.162;9.470;2022-09-14T02:28:54;2.28;;;1.20;;
55270;SDS011;41132;47.162;9.470;2022-09-14T02:31:25;5.00;;;1.40;;
55270;SDS011;41132;47.162;9.470;2022-09-14T02:37:12;3.38;;;1.27;;
55270;SDS011;41132;47.162;9.470;2022-09-14T02:47:37;4.38;;;1.35;;
55270;SDS011;41132;47.162;9.470;2022-09-14T02:53:13;2.13;;;1.08;;
55270;SDS011;41132;47.162;9.470;2022-09-14T02:55:50;6.07;;;1.38;;
55270;SDS011;41132;47.162;9.470;2022-09-14T02:58:19;3.45;;;1.27;;
55270;SDS011;41132;47.162;9.470;2022-09-14T03:00:46;5.03;;;1.52;;
55270;SDS011;41132;47.162;9.470;2022-09-14T03:03:13;4.97;;;1.33;;
55270;SDS011;41132;47.162;9.470;2022-09-14T03:05:40;9.68;;;1.75;;
55270;SDS011;41132;47.162;9.470;2022-09-14T03:08:06;2.97;;;1.10;;
55270;SDS011;41132;47.162;9.470;2022-09-14T03:10:34;4.45;;;1.33;;
55270;SDS011;41132;47.162;9.470;2022-09-14T03:12:59;1.67;;;1.02;;
55270;SDS011;41132;47.162;9.470;2022-09-14T03:15:25;3.15;;;1.10;;
55270;SDS011;41132;47.162;9.470;2022-09-14T03:17:52;5.47;;;1.48;;
55270;SDS011;41132;47.162;9.470;2022-09-14T03:20:18;8.18;;;1.65;;
55270;SDS011;41132;47.162;9.470;2022-09-14T03:22:49;3.08;;;1.15;;
55270;SDS011;41132;47.162;9.470;2022-09-14T03:25:14;3.35;;;1.17;;
55270;SDS011;41132;47.162;9.470;2022-09-14T03:27:40;6.15;;;1.50;;
55270;SDS011;41132;47.162;9.470;2022-09-14T03:30:06;3.80;;;1.33;;
55270;SDS011;41132;47.162;9.470;2022-09-14T03:32:32;2.95;;;1.08;;
55270;SDS011;41132;47.162;9.470;2022-09-14T03:34:59;3.38;;;1.50;;
55270;SDS011;41132;47.162;9.470;2022-09-14T03:37:24;3.75;;;1.38;;
55270;SDS011;41132;47.162;9.470;2022-09-14T03:39:50;3.17;;;1.30;;
55270;SDS011;41132;47.162;9.470;2022-09-14T03:42:15;3.05;;;1.23;;
55270;SDS011;41132;47.162;9.470;2022-09-14T03:44:41;2.85;;;1.25;;
55270;SDS011;41132;47.162;9.470;2022-09-14T03:47:07;2.97;;;1.40;;
55270;SDS011;41132;47.162;9.470;2022-09-14T03:49:33;2.70;;;1.30;;
55270;SDS011;41132;47.162;9.470;2022-09-14T03:51:58;5.70;;;1.58;;
55270;SDS011;41132;47.162;9.470;2022-09-14T03:54:24;4.30;;;1.73;;
55270;SDS011;41132;47.162;9.470;2022-09-14T03:56:51;6.05;;;1.50;;
55270;SDS011;41132;47.162;9.470;2022-09-14T03:59:17;3.22;;;1.38;;
55270;SDS011;41132;47.162;9.470;2022-09-14T04:01:42;2.92;;;1.20;;
55270;SDS011;41132;47.162;9.470;2022-09-14T04:04:08;2.35;;;1.20;;
55270;SDS011;41132;47.162;9.470;2022-09-14T04:06:33;3.10;;;1.40;;
55270;SDS011;41132;47.162;9.470;2022-09-14T04:08:58;4.47;;;1.20;;
55270;SDS011;41132;47.162;9.470;2022-09-14T04:11:24;5.07;;;1.40;;
55270;SDS011;41132;47.162;9.470;2022-09-14T04:13:50;3.90;;;1.40;;
55270;SDS011;41132;47.162;9.470;2022-09-14T04:16:17;3.60;;;1.50;;
55270;SDS011;41132;47.162;9.470;2022-09-14T04:18:44;3.20;;;1.10;;
55270;SDS011;41132;47.162;9.470;2022-09-14T04:21:14;5.03;;;1.42;;
55270;SDS011;41132;47.162;9.470;2022-09-14T04:23:42;3.13;;;1.23;;
55270;SDS011;41132;47.162;9.470;2022-09-14T04:26:11;2.92;;;1.30;;
55270;SDS011;41132;47.162;9.470;2022-09-14T04:28:38;2.83;;;1.30;;
55270;SDS011;41132;47.162;9.470;2022-09-14T04:31:04;4.13;;;1.30;;
55270;SDS011;41132;47.162;9.470;2022-09-14T04:33:31;4.03;;;1.40;;
55270;SDS011;41132;47.162;9.470;2022-09-14T04:36:02;3.15;;;1.40;;
55270;SDS011;41132;47.162;9.470;2022-09-14T04:38:29;5.97;;;1.40;;
55270;SDS011;41132;47.162;9.470;2022-09-14T04:40:56;3.80;;;1.60;;
55270;SDS011;41132;47.162;9.470;2022-09-14T04:43:22;5.10;;;1.25;;
55270;SDS011;41132;47.162;9.470;2022-09-14T04:45:49;3.17;;;1.27;;
55270;SDS011;41132;47.162;9.470;2022-09-14T04:48:14;3.42;;;1.33;;
55270;SDS011;41132;47.162;9.470;2022-09-14T04:50:40;3.92;;;1.50;;
55270;SDS011;41132;47.162;9.470;2022-09-14T04:53:05;3.63;;;1.42;;
55270;SDS011;41132;47.162;9.470;2022-09-14T04:55:31;1.98;;;1.15;;
55270;SDS011;41132;47.162;9.470;2022-09-14T04:57:56;2.05;;;1.08;;
55270;SDS011;41132;47.162;9.470;2022-09-14T05:00:21;3.78;;;1.45;;
55270;SDS011;41132;47.162;9.470;2022-09-14T05:02:47;4.85;;;1.30;;
55270;SDS011;41132;47.162;9.470;2022-09-14T05:05:12;7.18;;;1.60;;
55270;SDS011;41132;47.162;9.470;2022-09-14T05:07:38;6.30;;;1.40;;
55270;SDS011;41132;47.162;9.470;2022-09-14T05:10:03;5.32;;;1.27;;
55270;SDS011;41132;47.162;9.470;2022-09-14T05:12:29;3.60;;;1.38;;
55270;SDS011;41132;47.162;9.470;2022-09-14T05:14:54;5.28;;;1.50;;
55270;SDS011;41132;47.162;9.470;2022-09-14T05:17:20;2.75;;;1.48;;
55270;SDS011;41132;47.162;9.470;2022-09-14T05:19:45;4.35;;;1.50;;
55270;SDS011;41132;47.162;9.470;2022-09-14T05:22:10;3.83;;;1.45;;
55270;SDS011;41132;47.162;9.470;2022-09-14T05:24:36;6.30;;;1.73;;
55270;SDS011;41132;47.162;9.470;2022-09-14T05:27:01;5.93;;;1.45;;
55270;SDS011;41132;47.162;9.470;2022-09-14T05:29:27;4.13;;;1.65;;
55270;SDS011;41132;47.162;9.470;2022-09-14T05:31:53;4.90;;;1.80;;
55270;SDS011;41132;47.162;9.470;2022-09-14T05:34:19;3.55;;;1.40;;
55270;SDS011;41132;47.162;9.470;2022-09-14T05:36:45;4.15;;;1.55;;
55270;SDS011;41132;47.162;9.470;2022-09-14T05:39:10;2.95;;;1.40;;
55270;SDS011;41132;47.162;9.470;2022-09-14T05:41:36;5.75;;;1.60;;
55270;SDS011;41132;47.162;9.470;2022-09-14T05:44:02;5.35;;;1.67;;
55270;SDS011;41132;47.162;9.470;2022-09-14T05:46:27;4.80;;;1.80;;
55270;SDS011;41132;47.162;9.470;2022-09-14T05:48:53;4.30;;;1.40;;
55270;SDS011;41132;47.162;9.470;2022-09-14T05:51:22;4.18;;;1.40;;
55270;SDS011;41132;47.162;9.470;2022-09-14T05:53:53;3.72;;;1.35;;
55270;SDS011;41132;47.162;9.470;2022-09-14T05:56:21;3.38;;;1.40;;
55270;SDS011;41132;47.162;9.470;2022-09-14T05:58:48;4.55;;;1.30;;
55270;SDS011;41132;47.162;9.470;2022-09-14T06:03:43;4.25;;;1.58;;
55270;SDS011;41132;47.162;9.470;2022-09-14T06:06:10;6.38;;;1.83;;
55270;SDS011;41132;47.162;9.470;2022-09-14T06:08:37;6.20;;;1.80;;
55270;SDS011;41132;47.162;9.470;2022-09-14T06:11:08;4.80;;;1.60;;
55270;SDS011;41132;47.162;9.470;2022-09-14T06:13:39;4.68;;;1.77;;
55270;SDS011;41132;47.162;9.470;2022-09-14T06:16:06;3.88;;;1.50;;
55270;SDS011;41132;47.162;9.470;2022-09-14T06:18:33;4.68;;;1.40;;
55270;SDS011;41132;47.162;9.470;2022-09-14T06:21:00;5.03;;;1.83;;
55270;SDS011;41132;47.162;9.470;2022-09-14T06:23:27;4.20;;;1.45;;
55270;SDS011;41132;47.162;9.470;2022-09-14T06:25:53;4.60;;;1.73;;
55270;SDS011;41132;47.162;9.470;2022-09-14T06:28:20;7.35;;;1.70;;
55270;SDS011;41132;47.162;9.470;2022-09-14T06:30:47;4.93;;;1.63;;
55270;SDS011;41132;47.162;9.470;2022-09-14T06:33:12;4.65;;;1.50;;
55270;SDS011;41132;47.162;9.470;2022-09-14T06:35:37;4.72;;;1.55;;
55270;SDS011;41132;47.162;9.470;2022-09-14T06:38:03;6.25;;;1.73;;
55270;SDS011;41132;47.162;9.470;2022-09-14T06:40:28;6.13;;;1.63;;
55270;SDS011;41132;47.162;9.470;2022-09-14T06:42:54;4.72;;;1.67;;
55270;SDS011;41132;47.162;9.470;2022-09-14T06:45:19;3.38;;;1.50;;
55270;SDS011;41132;47.162;9.470;2022-09-14T06:47:44;4.25;;;1.58;;
55270;SDS011;41132;47.162;9.470;2022-09-14T06:50:10;3.75;;;1.45;;
55270;SDS011;41132;47.162;9.470;2022-09-14T06:52:35;4.55;;;1.50;;
55270;SDS011;41132;47.162;9.470;2022-09-14T06:55:01;4.45;;;1.48;;
55270;SDS011;41132;47.162;9.470;2022-09-14T06:57:27;4.70;;;1.38;;
55270;SDS011;41132;47.162;9.470;2022-09-14T06:59:52;5.15;;;1.33;;
55270;SDS011;41132;47.162;9.470;2022-09-14T07:02:17;7.15;;;1.70;;
55270;SDS011;41132;47.162;9.470;2022-09-14T07:04:43;5.15;;;1.83;;
55270;SDS011;41132;47.162;9.470;2022-09-14T07:07:09;8.82;;;1.58;;
55270;SDS011;41132;47.162;9.470;2022-09-14T07:09:34;3.53;;;1.20;;
55270;SDS011;41132;47.162;9.470;2022-09-14T07:12:00;5.97;;;1.55;;
55270;SDS011;41132;47.162;9.470;2022-09-14T07:14:26;6.15;;;1.50;;
55270;SDS011;41132;47.162;9.470;2022-09-14T07:16:51;6.03;;;1.60;;
55270;SDS011;41132;47.162;9.470;2022-09-14T07:19:17;3.67;;;1.60;;
55270;SDS011;41132;47.162;9.470;2022-09-14T07:21:42;3.83;;;1.40;;
55270;SDS011;41132;47.162;9.470;2022-09-14T07:24:08;3.03;;;1.40;;
55270;SDS011;41132;47.162;9.470;2022-09-14T07:26:36;5.07;;;1.42;;
55270;SDS011;41132;47.162;9.470;2022-09-14T07:29:08;4.65;;;1.52;;
55270;SDS011;41132;47.162;9.470;2022-09-14T07:31:39;4.00;;;1.50;;
55270;SDS011;41132;47.162;9.470;2022-09-14T07:34:12;4.82;;;1.60;;
55270;SDS011;41132;47.162;9.470;2022-09-14T07:36:38;3.80;;;1.33;;
55270;SDS011;41132;47.162;9.470;2022-09-14T07:39:04;4.57;;;1.70;;
55270;SDS011;41132;47.162;9.470;2022-09-14T07:41:30;6.78;;;1.40;;
55270;SDS011;41132;47.162;9.470;2022-09-14T07:43:58;3.28;;;1.45;;
55270;SDS011;41132;47.162;9.470;2022-09-14T07:46:25;4.05;;;1.50;;
55270;SDS011;41132;47.162;9.470;2022-09-14T07:48:57;3.53;;;1.35;;
55270;SDS011;41132;47.162;9.470;2022-09-14T07:51:26;4.53;;;1.23;;
55270;SDS011;41132;47.162;9.470;2022-09-14T07:53:53;5.72;;;1.30;;
55270;SDS011;41132;47.162;9.470;2022-09-14T07:56:18;3.78;;;1.58;;
55270;SDS011;41132;47.162;9.470;2022-09-14T07:58:45;4.57;;;1.80;;
55270;SDS011;41132;47.162;9.470;2022-09-14T08:01:13;7.05;;;1.63;;
55270;SDS011;41132;47.162;9.470;2022-09-14T08:03:42;5.75;;;2.00;;
55270;SDS011;41132;47.162;9.470;2022-09-14T08:06:09;4.60;;;1.70;;
55270;SDS011;41132;47.162;9.470;2022-09-14T08:08:37;4.47;;;1.63;;
55270;SDS011;41132;47.162;9.470;2022-09-14T08:11:27;5.40;;;1.65;;
55270;SDS011;41132;47.162;9.470;2022-09-14T08:13:54;6.65;;;1.70;;
55270;SDS011;41132;47.162;9.470;2022-09-14T08:16:24;4.80;;;1.48;;
55270;SDS011;41132;47.162;9.470;2022-09-14T08:18:54;6.88;;;1.88;;
55270;SDS011;41132;47.162;9.470;2022-09-14T08:21:30;4.95;;;1.85;;
55270;SDS011;41132;47.162;9.470;2022-09-14T08:23:56;4.40;;;1.55;;
55270;SDS011;41132;47.162;9.470;2022-09-14T08:26:22;6.97;;;1.67;;
55270;SDS011;41132;47.162;9.470;2022-09-14T08:28:50;4.80;;;1.60;;
55270;SDS011;41132;47.162;9.470;2022-09-14T08:31:17;4.47;;;1.52;;
55270;SDS011;41132;47.162;9.470;2022-09-14T08:33:46;4.57;;;1.73;;
55270;SDS011;41132;47.162;9.470;2022-09-14T08:36:14;4.05;;;1.58;;
55270;SDS011;41132;47.162;9.470;2022-09-14T08:38:41;4.93;;;1.83;;
55270;SDS011;41132;47.162;9.470;2022-09-14T08:43:32;7.45;;;1.65;;
55270;SDS011;41132;47.162;9.470;2022-09-14T08:46:00;6.57;;;2.05;;
55270;SDS011;41132;47.162;9.470;2022-09-14T08:48:30;4.18;;;1.73;;
55270;SDS011;41132;47.162;9.470;2022-09-14T08:50:59;4.20;;;1.55;;
55270;SDS011;41132;47.162;9.470;2022-09-14T08:53:25;5.53;;;1.92;;
55270;SDS011;41132;47.162;9.470;2022-09-14T08:55:58;7.90;;;1.60;;
55270;SDS011;41132;47.162;9.470;2022-09-14T09:04:34;5.18;;;1.63;;
55270;SDS011;41132;47.162;9.470;2022-09-14T09:07:20;4.68;;;1.80;;
55270;SDS011;41132;47.162;9.470;2022-09-14T09:09:55;6.97;;;1.75;;
55270;SDS011;41132;47.162;9.470;2022-09-14T09:17:52;8.32;;;1.90;;
55270;SDS011;41132;47.162;9.470;2022-09-14T09:20:27;5.18;;;1.90;;
55270;SDS011;41132;47.162;9.470;2022-09-14T09:25:37;4.07;;;1.75;;
55270;SDS011;41132;47.162;9.470;2022-09-14T09:28:12;7.10;;;1.67;;
55270;SDS011;41132;47.162;9.470;2022-09-14T09:30:40;6.35;;;2.08;;
55270;SDS011;41132;47.162;9.470;2022-09-14T09:33:08;4.25;;;1.75;;
55270;SDS011;41132;47.162;9.470;2022-09-14T09:35:39;3.83;;;1.90;;
55270;SDS011;41132;47.162;9.470;2022-09-14T09:38:12;8.45;;;2.00;;
55270;SDS011;41132;47.162;9.470;2022-09-14T09:40:41;4.68;;;1.80;;
55270;SDS011;41132;47.162;9.470;2022-09-14T09:43:11;4.88;;;1.90;;
55270;SDS011;41132;47.162;9.470;2022-09-14T09:48:12;5.57;;;2.10;;
55270;SDS011;41132;47.162;9.470;2022-09-14T09:50:45;6.53;;;2.20;;
55270;SDS011;41132;47.162;9.470;2022-09-14T09:53:32;5.13;;;2.10;;
55270;SDS011;41132;47.162;9.470;2022-09-14T09:56:00;6.38;;;1.90;;
55270;SDS011;41132;47.162;9.470;2022-09-14T09:58:32;10.80;;;2.30;;
55270;SDS011;41132;47.162;9.470;2022-09-14T10:01:04;6.22;;;2.13;;
55270;SDS011;41132;47.162;9.470;2022-09-14T10:03:43;7.18;;;2.25;;
55270;SDS011;41132;47.162;9.470;2022-09-14T10:06:15;8.75;;;2.30;;
55270;SDS011;41132;47.162;9.470;2022-09-14T10:08:42;8.90;;;1.88;;
55270;SDS011;41132;47.162;9.470;2022-09-14T10:14:02;7.22;;;2.03;;
55270;SDS011;41132;47.162;9.470;2022-09-14T10:16:34;4.07;;;1.70;;
55270;SDS011;41132;47.162;9.470;2022-09-14T10:19:03;5.88;;;1.92;;
55270;SDS011;41132;47.162;9.470;2022-09-14T10:21:37;6.88;;;1.92;;
55270;SDS011;41132;47.162;9.470;2022-09-14T10:24:39;7.45;;;2.15;;
55270;SDS011;41132;47.162;9.470;2022-09-14T10:29:55;6.97;;;1.73;;
55270;SDS011;41132;47.162;9.470;2022-09-14T10:32:24;6.65;;;2.15;;
55270;SDS011;41132;47.162;9.470;2022-09-14T10:34:50;6.60;;;1.80;;
55270;SDS011;41132;47.162;9.470;2022-09-14T10:37:23;4.30;;;1.65;;
55270;SDS011;41132;47.162;9.470;2022-09-14T10:42:47;7.88;;;2.28;;
55270;SDS011;41132;47.162;9.470;2022-09-14T10:46:06;7.93;;;2.13;;
55270;SDS011;41132;47.162;9.470;2022-09-14T10:51:37;5.63;;;2.03;;
55270;SDS011;41132;47.162;9.470;2022-09-14T10:57:22;5.72;;;2.10;;
55270;SDS011;41132;47.162;9.470;2022-09-14T10:59:56;4.85;;;1.83;;
55270;SDS011;41132;47.162;9.470;2022-09-14T11:05:19;7.43;;;2.00;;
55270;SDS011;41132;47.162;9.470;2022-09-14T11:11:29;7.53;;;2.42;;
55270;SDS011;41132;47.162;9.470;2022-09-14T11:21:58;5.97;;;2.45;;
55270;SDS011;41132;47.162;9.470;2022-09-14T11:24:40;5.78;;;2.15;;
55270;SDS011;41132;47.162;9.470;2022-09-14T11:27:27;6.60;;;2.20;;
55270;SDS011;41132;47.162;9.470;2022-09-14T11:30:10;6.30;;;2.10;;
55270;SDS011;41132;47.162;9.470;2022-09-14T11:32:47;5.70;;;1.98;;
55270;SDS011;41132;47.162;9.470;2022-09-14T11:35:20;5.97;;;2.20;;
55270;SDS011;41132;47.162;9.470;2022-09-14T11:37:52;5.88;;;2.25;;
55270;SDS011;41132;47.162;9.470;2022-09-14T11:40:29;5.28;;;2.15;;
55270;SDS011;41132;47.162;9.470;2022-09-14T11:43:04;6.25;;;2.13;;
55270;SDS011;41132;47.162;9.470;2022-09-14T11:45:36;9.50;;;2.10;;
55270;SDS011;41132;47.162;9.470;2022-09-14T11:51:18;6.63;;;2.00;;
55270;SDS011;41132;47.162;9.470;2022-09-14T11:53:46;5.18;;;2.00;;
55270;SDS011;41132;47.162;9.470;2022-09-14T11:56:23;6.15;;;2.20;;
55270;SDS011;41132;47.162;9.470;2022-09-14T11:58:58;5.20;;;1.80;;
55270;SDS011;41132;47.162;9.470;2022-09-14T12:01:37;8.10;;;2.25;;
55270;SDS011;41132;47.162;9.470;2022-09-14T12:04:16;5.75;;;2.20;;
55270;SDS011;41132;47.162;9.470;2022-09-14T12:06:44;6.10;;;2.13;;
55270;SDS011;41132;47.162;9.470;2022-09-14T12:11:47;5.00;;;2.45;;
55270;SDS011;41132;47.162;9.470;2022-09-14T12:19:38;5.30;;;2.10;;
55270;SDS011;41132;47.162;9.470;2022-09-14T12:24:56;5.40;;;2.30;;
55270;SDS011;41132;47.162;9.470;2022-09-14T12:27:35;6.28;;;2.30;;
55270;SDS011;41132;47.162;9.470;2022-09-14T13:04:38;4.75;;;2.22;;
55270;SDS011;41132;47.162;9.470;2022-09-14T13:07:14;5.50;;;2.00;;
55270;SDS011;41132;47.162;9.470;2022-09-14T13:09:49;5.60;;;2.40;;
55270;SDS011;41132;47.162;9.470;2022-09-14T13:12:22;7.45;;;2.40;;
55270;SDS011;41132;47.162;9.470;2022-09-14T13:14:53;5.30;;;1.80;;
55270;SDS011;41132;47.162;9.470;2022-09-14T13:17:22;6.60;;;2.30;;
55270;SDS011;41132;47.162;9.470;2022-09-14T13:19:55;6.85;;;2.30;;
55270;SDS011;41132;47.162;9.470;2022-09-14T13:22:31;7.55;;;2.72;;
55270;SDS011;41132;47.162;9.470;2022-09-14T13:24:58;9.63;;;2.97;;
55270;SDS011;41132;47.162;9.470;2022-09-14T13:27:26;8.85;;;2.70;;
55270;SDS011;41132;47.162;9.470;2022-09-14T13:30:03;7.07;;;2.78;;
55270;SDS011;41132;47.162;9.470;2022-09-14T13:32:37;11.45;;;2.85;;
55270;SDS011;41132;47.162;9.470;2022-09-14T13:35:13;6.95;;;2.60;;
55270;SDS011;41132;47.162;9.470;2022-09-14T13:37:41;5.38;;;2.50;;
55270;SDS011;41132;47.162;9.470;2022-09-14T13:40:07;7.72;;;2.50;;
55270;SDS011;41132;47.162;9.470;2022-09-14T13:42:33;6.00;;;2.47;;
55270;SDS011;41132;47.162;9.470;2022-09-14T13:44:58;5.13;;;2.22;;
55270;SDS011;41132;47.162;9.470;2022-09-14T13:47:24;4.93;;;2.25;;
55270;SDS011;41132;47.162;9.470;2022-09-14T13:49:51;7.32;;;2.50;;
55270;SDS011;41132;47.162;9.470;2022-09-14T13:54:51;5.80;;;2.58;;
55270;SDS011;41132;47.162;9.470;2022-09-14T13:57:20;5.53;;;2.67;;
55270;SDS011;41132;47.162;9.470;2022-09-14T14:02:41;7.95;;;3.00;;
55270;SDS011;41132;47.162;9.470;2022-09-14T14:05:18;6.53;;;2.72;;
55270;SDS011;41132;47.162;9.470;2022-09-14T14:07:46;6.78;;;2.55;;
55270;SDS011;41132;47.162;9.470;2022-09-14T14:10:22;4.82;;;2.05;;
55270;SDS011;41132;47.162;9.470;2022-09-14T14:12:48;6.65;;;2.65;;
55270;SDS011;41132;47.162;9.470;2022-09-14T14:17:42;8.15;;;2.25;;
55270;SDS011;41132;47.162;9.470;2022-09-14T14:28:00;6.18;;;2.10;;
55270;SDS011;41132;47.162;9.470;2022-09-14T14:30:28;5.53;;;2.28;;
55270;SDS011;41132;47.162;9.470;2022-09-14T14:32:54;5.40;;;2.20;;
55270;SDS011;41132;47.162;9.470;2022-09-14T14:35:27;6.55;;;2.22;;
55270;SDS011;41132;47.162;9.470;2022-09-14T14:37:53;7.88;;;2.30;;
55270;SDS011;41132;47.162;9.470;2022-09-14T14:40:19;6.00;;;2.25;;
55270;SDS011;41132;47.162;9.470;2022-09-14T14:42:46;5.88;;;2.40;;
55270;SDS011;41132;47.162;9.470;2022-09-14T14:45:14;8.45;;;2.90;;
55270;SDS011;41132;47.162;9.470;2022-09-14T14:47:43;5.13;;;2.47;;
55270;SDS011;41132;47.162;9.470;2022-09-14T14:50:17;6.60;;;2.65;;
55270;SDS011;41132;47.162;9.470;2022-09-14T14:52:44;5.53;;;2.55;;
55270;SDS011;41132;47.162;9.470;2022-09-14T14:55:10;6.53;;;2.22;;
55270;SDS011;41132;47.162;9.470;2022-09-14T14:57:36;5.18;;;2.17;;
55270;SDS011;41132;47.162;9.470;2022-09-14T15:00:26;6.40;;;2.33;;
55270;SDS011;41132;47.162;9.470;2022-09-14T15:02:51;5.72;;;2.60;;
55270;SDS011;41132;47.162;9.470;2022-09-14T15:05:16;6.93;;;2.38;;
55270;SDS011;41132;47.162;9.470;2022-09-14T15:07:43;6.63;;;2.10;;
55270;SDS011;41132;47.162;9.470;2022-09-14T15:10:10;7.60;;;2.55;;
55270;SDS011;41132;47.162;9.470;2022-09-14T15:12:38;5.28;;;2.45;;
55270;SDS011;41132;47.162;9.470;2022-09-14T15:15:04;6.28;;;2.88;;
55270;SDS011;41132;47.162;9.470;2022-09-14T15:17:30;5.60;;;2.17;;
55270;SDS011;41132;47.162;9.470;2022-09-14T15:19:56;6.22;;;2.47;;
55270;SDS011;41132;47.162;9.470;2022-09-14T15:22:21;4.90;;;2.50;;
55270;SDS011;41132;47.162;9.470;2022-09-14T15:24:46;6.43;;;2.50;;
55270;SDS011;41132;47.162;9.470;2022-09-14T15:27:12;6.45;;;2.55;;
55270;SDS011;41132;47.162;9.470;2022-09-14T15:29:37;8.20;;;3.35;;
55270;SDS011;41132;47.162;9.470;2022-09-14T15:32:03;7.82;;;3.15;;
55270;SDS011;41132;47.162;9.470;2022-09-14T15:34:29;8.20;;;2.33;;
55270;SDS011;41132;47.162;9.470;2022-09-14T15:36:54;7.38;;;2.30;;
55270;SDS011;41132;47.162;9.470;2022-09-14T15:39:22;7.72;;;2.60;;
55270;SDS011;41132;47.162;9.470;2022-09-14T15:41:50;6.38;;;2.75;;
55270;SDS011;41132;47.162;9.470;2022-09-14T15:44:16;7.85;;;3.03;;
55270;SDS011;41132;47.162;9.470;2022-09-14T15:46:42;7.18;;;2.60;;
55270;SDS011;41132;47.162;9.470;2022-09-14T15:49:14;6.03;;;2.72;;
55270;SDS011;41132;47.162;9.470;2022-09-14T15:51:45;9.75;;;2.85;;
55270;SDS011;41132;47.162;9.470;2022-09-14T15:54:11;6.25;;;2.95;;
55270;SDS011;41132;47.162;9.470;2022-09-14T15:56:37;6.45;;;2.60;;
55270;SDS011;41132;47.162;9.470;2022-09-14T15:59:03;7.00;;;3.17;;
55270;SDS011;41132;47.162;9.470;2022-09-14T16:01:29;6.68;;;2.50;;
55270;SDS011;41132;47.162;9.470;2022-09-14T16:03:56;4.28;;;2.03;;
55270;SDS011;41132;47.162;9.470;2022-09-14T16:06:22;7.50;;;2.60;;
55270;SDS011;41132;47.162;9.470;2022-09-14T16:08:47;7.03;;;2.30;;
55270;SDS011;41132;47.162;9.470;2022-09-14T16:11:12;4.85;;;2.10;;
55270;SDS011;41132;47.162;9.470;2022-09-14T16:13:38;6.10;;;2.45;;
55270;SDS011;41132;47.162;9.470;2022-09-14T16:16:08;7.88;;;2.78;;
55270;SDS011;41132;47.162;9.470;2022-09-14T16:18:35;7.18;;;2.35;;
55270;SDS011;41132;47.162;9.470;2022-09-14T16:26:08;5.95;;;2.28;;
55270;SDS011;41132;47.162;9.470;2022-09-14T16:28:38;6.07;;;2.75;;
55270;SDS011;41132;47.162;9.470;2022-09-14T16:31:09;7.60;;;2.65;;
55270;SDS011;41132;47.162;9.470;2022-09-14T16:33:40;7.80;;;3.03;;
55270;SDS011;41132;47.162;9.470;2022-09-14T16:36:09;6.05;;;2.45;;
55270;SDS011;41132;47.162;9.470;2022-09-14T16:38:37;5.40;;;2.50;;
55270;SDS011;41132;47.162;9.470;2022-09-14T16:41:03;7.22;;;2.53;;
55270;SDS011;41132;47.162;9.470;2022-09-14T16:43:30;6.35;;;1.98;;
55270;SDS011;41132;47.162;9.470;2022-09-14T16:46:00;5.57;;;2.20;;
55270;SDS011;41132;47.162;9.470;2022-09-14T17:01:32;5.80;;;2.35;;
55270;SDS011;41132;47.162;9.470;2022-09-14T17:04:10;4.47;;;2.22;;
55270;SDS011;41132;47.162;9.470;2022-09-14T17:06:39;6.25;;;2.35;;
55270;SDS011;41132;47.162;9.470;2022-09-14T18:03:35;7.03;;;2.92;;
55270;SDS011;41132;47.162;9.470;2022-09-14T18:06:02;5.80;;;2.28;;
55270;SDS011;41132;47.162;9.470;2022-09-14T18:08:29;5.50;;;2.15;;
55270;SDS011;41132;47.162;9.470;2022-09-14T18:10:54;7.18;;;2.50;;
55270;SDS011;41132;47.162;9.470;2022-09-14T18:13:20;6.00;;;2.28;;
55270;SDS011;41132;47.162;9.470;2022-09-14T18:15:45;5.55;;;2.42;;
55270;SDS011;41132;47.162;9.470;2022-09-14T18:18:11;5.20;;;2.42;;
55270;SDS011;41132;47.162;9.470;2022-09-14T18:20:36;6.25;;;2.40;;
55270;SDS011;41132;47.162;9.470;2022-09-14T18:23:02;5.25;;;2.40;;
55270;SDS011;41132;47.162;9.470;2022-09-14T18:25:27;4.65;;;2.22;;
55270;SDS011;41132;47.162;9.470;2022-09-14T18:27:53;5.78;;;1.98;;
55270;SDS011;41132;47.162;9.470;2022-09-14T18:30:18;4.28;;;1.90;;
55270;SDS011;41132;47.162;9.470;2022-09-14T18:32:44;4.57;;;1.95;;
55270;SDS011;41132;47.162;9.470;2022-09-14T18:35:10;6.53;;;2.10;;
55270;SDS011;41132;47.162;9.470;2022-09-14T18:37:39;7.95;;;2.10;;